createdAt,value
2018-03-14T00:00:07.335Z,89.57
2018-03-14T00:01:07.312Z,88.81
2018-03-14T00:02:07.318Z,90.05
2018-03-14T00:03:07.353Z,90.05
2018-03-14T00:04:07.355Z,89.76
2018-03-14T00:05:07.399Z,89.67
2018-03-14T00:06:07.388Z,89.95
2018-03-14T00:07:07.417Z,90.14
2018-03-14T00:08:07.401Z,89.76
2018-03-14T00:09:07.418Z,89.67
2018-03-14T00:10:07.445Z,89.76
2018-03-14T00:11:07.485Z,90.14
2018-03-14T00:12:07.519Z,89.67
2018-03-14T00:13:07.473Z,89.57
2018-03-14T00:14:07.487Z,89.95
2018-03-14T00:15:07.521Z,89.67
2018-03-14T00:16:07.529Z,90.33
2018-03-14T00:17:07.548Z,90.71
2018-03-14T00:18:07.592Z,90.28
2018-03-14T00:19:07.592Z,90.42
2018-03-14T00:20:07.577Z,89.67
2018-03-14T00:21:07.629Z,90.38
2018-03-14T00:22:07.681Z,90.80
2018-03-14T00:23:07.626Z,90.33
2018-03-14T00:24:07.641Z,90.71
2018-03-14T00:25:07.663Z,90.71
2018-03-14T00:26:07.673Z,89.76
2018-03-14T00:27:07.727Z,89.86
2018-03-14T00:28:07.712Z,89.95
2018-03-14T00:29:07.715Z,90.80
2018-03-14T00:30:07.722Z,90.57
2018-03-14T00:31:07.777Z,90.85
2018-03-14T00:32:07.782Z,90.85
2018-03-14T00:33:07.795Z,91.42
2018-03-14T00:34:07.791Z,92.18
2018-03-14T00:35:07.814Z,91.71
2018-03-14T00:36:07.823Z,91.42
2018-03-14T00:37:07.837Z,90.85
2018-03-14T00:38:07.883Z,90.76
2018-03-14T00:39:07.892Z,90.52
2018-03-14T00:40:07.881Z,90.05
2018-03-14T00:41:07.899Z,90.05
2018-03-14T00:42:07.908Z,90.00
2018-03-14T00:43:07.939Z,90.14
2018-03-14T00:44:07.957Z,89.95
2018-03-14T00:45:07.960Z,89.95
2018-03-14T00:46:07.970Z,90.66
2018-03-14T00:47:07.987Z,90.85
2018-03-14T00:48:08.009Z,91.24
2018-03-14T00:49:08.028Z,91.14
2018-03-14T00:50:08.116Z,90.66
2018-03-14T00:51:08.096Z,91.14
2018-03-14T00:52:08.105Z,91.24
2018-03-14T00:53:08.094Z,91.14
2018-03-14T00:54:08.089Z,91.04
2018-03-14T00:55:08.133Z,90.19
2018-03-14T00:56:08.140Z,90.66
2018-03-14T00:57:08.128Z,90.00
2018-03-14T00:58:08.167Z,90.28
2018-03-14T00:59:08.200Z,90.66
2018-03-14T01:00:08.196Z,89.57
2018-03-14T01:01:08.192Z,89.95
2018-03-14T01:02:08.201Z,89.47
2018-03-14T01:03:08.215Z,88.90
2018-03-14T01:04:08.258Z,89.24
2018-03-14T01:05:08.265Z,90.09
2018-03-14T01:06:08.275Z,90.57
2018-03-14T01:07:08.295Z,90.09
2018-03-14T01:08:08.315Z,90.23
2018-03-14T01:09:08.310Z,89.24
2018-03-14T01:10:08.337Z,89.09
2018-03-14T01:11:08.358Z,89.00
2018-03-14T01:12:08.351Z,88.62
2018-03-14T01:13:08.395Z,88.43
2018-03-14T01:14:08.396Z,88.71
2018-03-14T01:15:08.395Z,89.19
2018-03-14T01:16:08.423Z,88.71
2018-03-14T01:17:08.428Z,88.34
2018-03-14T01:18:08.444Z,88.90
2018-03-14T01:19:08.473Z,88.34
2018-03-14T01:20:08.466Z,88.34
2018-03-14T01:21:08.501Z,88.43
2018-03-14T01:22:08.541Z,88.15
2018-03-14T01:23:08.528Z,88.62
2018-03-14T01:24:08.548Z,88.24
2018-03-14T01:25:08.588Z,87.67
2018-03-14T01:26:08.587Z,87.86
2018-03-14T01:27:08.580Z,87.95
2018-03-14T01:28:08.598Z,87.82
2018-03-14T01:29:08.609Z,88.86
2018-03-14T01:30:08.620Z,88.10
2018-03-14T01:31:08.674Z,88.53
2018-03-14T01:32:08.652Z,88.62
2018-03-14T01:33:08.682Z,88.62
2018-03-14T01:34:08.683Z,88.71
2018-03-14T01:35:08.717Z,88.43
2018-03-14T01:36:08.718Z,88.90
2018-03-14T01:37:08.735Z,88.24
2018-03-14T01:38:08.741Z,87.67
2018-03-14T01:39:08.759Z,88.05
2018-03-14T01:40:08.776Z,88.86
2018-03-14T01:41:08.803Z,88.76
2018-03-14T01:42:08.807Z,88.67
2018-03-14T01:43:08.845Z,88.01
2018-03-14T01:44:08.827Z,88.57
2018-03-14T01:45:08.842Z,88.86
2018-03-14T01:46:08.878Z,88.95
2018-03-14T01:47:08.924Z,88.95
2018-03-14T01:48:08.911Z,88.39
2018-03-14T01:49:08.946Z,88.95
2018-03-14T01:50:08.966Z,88.39
2018-03-14T01:51:08.956Z,88.39
2018-03-14T01:52:08.957Z,88.67
2018-03-14T01:53:08.966Z,89.43
2018-03-14T01:54:09.037Z,88.95
2018-03-14T01:55:09.025Z,88.57
2018-03-14T01:56:09.007Z,88.95
2018-03-14T01:57:09.023Z,88.95
2018-03-14T01:58:09.041Z,88.95
2018-03-14T01:59:09.051Z,88.39
2018-03-14T02:00:09.098Z,88.48
2018-03-14T02:01:09.089Z,87.82
2018-03-14T02:02:09.099Z,88.20
2018-03-14T02:03:09.109Z,88.01
2018-03-14T02:04:09.128Z,87.15
2018-03-14T02:05:09.165Z,86.77
2018-03-14T02:06:09.162Z,87.43
2018-03-14T02:07:09.191Z,88.67
2018-03-14T02:08:09.183Z,88.95
2018-03-14T02:09:09.197Z,88.39
2018-03-14T02:10:09.216Z,88.48
2018-03-14T02:11:09.236Z,87.91
2018-03-14T02:12:09.242Z,88.48
2018-03-14T02:13:09.255Z,88.39
2018-03-14T02:14:09.275Z,89.53
2018-03-14T02:15:09.292Z,90.14
2018-03-14T02:16:09.304Z,89.90
2018-03-14T02:17:09.310Z,89.05
2018-03-14T02:18:09.341Z,88.10
2018-03-14T02:19:09.337Z,87.91
2018-03-14T02:20:09.371Z,88.29
2018-03-14T02:21:09.416Z,88.20
2018-03-14T02:22:09.382Z,88.57
2018-03-14T02:23:09.515Z,88.67
2018-03-14T02:24:09.421Z,89.43
2018-03-14T02:25:09.433Z,88.57
2018-03-14T02:26:09.440Z,88.67
2018-03-14T02:27:09.480Z,88.95
2018-03-14T02:28:09.483Z,90.00
2018-03-14T02:29:09.502Z,90.09
2018-03-14T02:30:09.512Z,90.24
2018-03-14T02:31:09.516Z,90.43
2018-03-14T02:32:09.579Z,91.28
2018-03-14T02:33:09.575Z,90.90
2018-03-14T02:34:09.560Z,91.28
2018-03-14T02:35:09.586Z,90.76
2018-03-14T02:36:09.602Z,89.53
2018-03-14T02:37:09.617Z,89.33
2018-03-14T02:38:09.654Z,89.24
2018-03-14T02:39:09.671Z,88.95
2018-03-14T02:40:09.677Z,89.43
2018-03-14T02:41:09.661Z,89.24
2018-03-14T02:42:09.687Z,89.43
2018-03-14T02:43:09.691Z,89.43
2018-03-14T02:44:09.765Z,89.33
2018-03-14T02:45:09.725Z,89.33
2018-03-14T02:46:09.733Z,88.76
2018-03-14T02:47:09.755Z,88.95
2018-03-14T02:48:09.872Z,88.86
2018-03-14T02:49:09.850Z,88.67
2018-03-14T02:50:09.806Z,88.67
2018-03-14T02:51:09.808Z,88.57
2018-03-14T02:52:09.876Z,88.67
2018-03-14T02:53:09.840Z,88.01
2018-03-14T02:54:09.888Z,88.10
2018-03-14T02:55:09.879Z,87.53
2018-03-14T02:56:09.894Z,87.24
2018-03-14T02:57:09.898Z,88.01
2018-03-14T02:58:09.921Z,87.43
2018-03-14T02:59:09.922Z,87.43
2018-03-14T03:00:09.969Z,86.96
2018-03-14T03:01:09.970Z,87.43
2018-03-14T03:02:09.993Z,87.91
2018-03-14T03:03:09.985Z,88.10
2018-03-14T03:04:10.007Z,87.72
2018-03-14T03:05:10.023Z,87.24
2018-03-14T03:06:10.100Z,86.49
2018-03-14T03:07:10.044Z,86.49
2018-03-14T03:08:10.064Z,86.68
2018-03-14T03:09:10.107Z,86.39
2018-03-14T03:10:10.092Z,87.15
2018-03-14T03:11:10.107Z,87.91
2018-03-14T03:12:10.117Z,87.15
2018-03-14T03:13:10.143Z,86.96
2018-03-14T03:14:10.178Z,87.05
2018-03-14T03:15:10.172Z,86.39
2018-03-14T03:16:10.201Z,86.49
2018-03-14T03:17:10.200Z,86.68
2018-03-14T03:18:10.227Z,87.24
2018-03-14T03:19:10.246Z,87.43
2018-03-14T03:20:10.250Z,88.01
2018-03-14T03:21:10.260Z,87.91
2018-03-14T03:22:10.290Z,87.34
2018-03-14T03:23:10.291Z,87.34
2018-03-14T03:24:10.380Z,87.24
2018-03-14T03:25:10.339Z,87.15
2018-03-14T03:26:10.357Z,87.24
2018-03-14T03:27:10.339Z,87.34
2018-03-14T03:28:10.368Z,87.62
2018-03-14T03:29:10.367Z,86.72
2018-03-14T03:30:10.392Z,87.15
2018-03-14T03:31:10.407Z,86.20
2018-03-14T03:32:10.424Z,87.15
2018-03-14T03:33:10.474Z,86.68
2018-03-14T03:34:10.450Z,86.11
2018-03-14T03:35:10.452Z,86.15
2018-03-14T03:36:10.521Z,86.34
2018-03-14T03:37:10.504Z,86.11
2018-03-14T03:38:10.499Z,86.05
2018-03-14T03:39:10.514Z,85.68
2018-03-14T03:40:10.556Z,85.11
2018-03-14T03:41:10.590Z,85.44
2018-03-14T03:42:10.561Z,85.68
2018-03-14T03:43:10.576Z,85.58
2018-03-14T03:44:10.590Z,85.30
2018-03-14T03:45:10.628Z,85.44
2018-03-14T03:46:10.664Z,86.11
2018-03-14T03:47:10.630Z,86.68
2018-03-14T03:48:10.651Z,86.96
2018-03-14T03:49:10.667Z,87.05
2018-03-14T03:50:10.674Z,87.24
2018-03-14T03:51:10.703Z,87.05
2018-03-14T03:52:10.743Z,87.30
2018-03-14T03:53:10.749Z,87.43
2018-03-14T03:54:10.756Z,87.15
2018-03-14T03:55:10.802Z,87.72
2018-03-14T03:56:10.782Z,87.49
2018-03-14T03:57:10.803Z,87.53
2018-03-14T03:58:10.819Z,87.05
2018-03-14T03:59:10.847Z,87.58
2018-03-14T04:00:10.824Z,88.20
2018-03-14T04:01:10.854Z,88.20
2018-03-14T04:02:10.853Z,87.34
2018-03-14T04:03:10.873Z,87.05
2018-03-14T04:04:10.883Z,87.05
2018-03-14T04:05:10.900Z,87.05
2018-03-14T04:06:10.930Z,86.87
2018-03-14T04:07:10.931Z,87.43
2018-03-14T04:08:10.949Z,87.15
2018-03-14T04:09:10.961Z,86.30
2018-03-14T04:10:11.019Z,86.20
2018-03-14T04:11:10.991Z,85.63
2018-03-14T04:12:11.001Z,85.53
2018-03-14T04:13:11.040Z,85.63
2018-03-14T04:14:11.053Z,85.82
2018-03-14T04:15:11.091Z,86.01
2018-03-14T04:16:11.062Z,85.82
2018-03-14T04:17:11.084Z,86.49
2018-03-14T04:18:11.088Z,85.16
2018-03-14T04:19:11.136Z,85.25
2018-03-14T04:20:11.131Z,86.11
2018-03-14T04:21:11.134Z,85.72
2018-03-14T04:22:11.148Z,85.72
2018-03-14T04:23:11.183Z,86.49
2018-03-14T04:24:11.239Z,86.68
2018-03-14T04:25:11.205Z,85.91
2018-03-14T04:26:11.220Z,86.11
2018-03-14T04:27:11.225Z,85.49
2018-03-14T04:28:11.296Z,85.82
2018-03-14T04:29:11.337Z,85.72
2018-03-14T04:30:11.272Z,85.53
2018-03-14T04:31:11.330Z,85.44
2018-03-14T04:32:11.302Z,84.97
2018-03-14T04:33:11.324Z,84.59
2018-03-14T04:34:11.328Z,84.78
2018-03-14T04:35:11.346Z,84.68
2018-03-14T04:36:11.370Z,85.06
2018-03-14T04:37:11.380Z,85.44
2018-03-14T04:38:11.410Z,85.06
2018-03-14T04:39:11.401Z,85.53
2018-03-14T04:40:11.482Z,85.16
2018-03-14T04:41:11.452Z,85.72
2018-03-14T04:42:11.450Z,85.35
2018-03-14T04:43:11.492Z,85.35
2018-03-14T04:44:11.491Z,85.25
2018-03-14T04:45:11.520Z,85.35
2018-03-14T04:46:11.576Z,85.11
2018-03-14T04:47:11.537Z,85.11
2018-03-14T04:48:11.552Z,85.35
2018-03-14T04:49:11.565Z,85.25
2018-03-14T04:50:11.611Z,85.53
2018-03-14T04:51:11.583Z,85.25
2018-03-14T04:52:11.664Z,85.49
2018-03-14T04:53:11.632Z,84.87
2018-03-14T04:54:11.670Z,85.44
2018-03-14T04:55:11.652Z,86.20
2018-03-14T04:56:11.682Z,86.20
2018-03-14T04:57:11.669Z,86.49
2018-03-14T04:58:11.689Z,86.30
2018-03-14T04:59:11.729Z,86.30
2018-03-14T05:00:11.732Z,86.30
2018-03-14T05:01:11.726Z,86.01
2018-03-14T05:02:11.758Z,85.06
2018-03-14T05:03:11.786Z,85.20
2018-03-14T05:04:11.791Z,85.44
2018-03-14T05:05:11.795Z,85.44
2018-03-14T05:06:11.832Z,84.49
2018-03-14T05:07:11.836Z,84.78
2018-03-14T05:08:11.836Z,84.30
2018-03-14T05:09:11.852Z,84.63
2018-03-14T05:10:11.871Z,84.68
2018-03-14T05:11:11.879Z,84.53
2018-03-14T05:12:11.896Z,84.63
2018-03-14T05:13:11.904Z,84.72
2018-03-14T05:14:11.988Z,85.20
2018-03-14T05:15:11.942Z,85.39
2018-03-14T05:16:11.974Z,85.53
2018-03-14T05:17:11.982Z,85.16
2018-03-14T05:18:12.000Z,86.01
2018-03-14T05:19:12.027Z,85.91
2018-03-14T05:20:12.026Z,85.06
2018-03-14T05:21:12.031Z,85.82
2018-03-14T05:22:12.048Z,85.06
2018-03-14T05:23:12.064Z,85.06
2018-03-14T05:24:12.092Z,85.63
2018-03-14T05:25:12.091Z,84.97
2018-03-14T05:26:12.109Z,85.25
2018-03-14T05:27:12.138Z,85.35
2018-03-14T05:28:12.135Z,84.68
2018-03-14T05:29:12.144Z,84.97
2018-03-14T05:30:12.186Z,84.34
2018-03-14T05:31:12.183Z,84.30
2018-03-14T05:32:12.214Z,84.68
2018-03-14T05:33:12.218Z,84.63
2018-03-14T05:34:12.258Z,85.35
2018-03-14T05:35:12.265Z,84.49
2018-03-14T05:36:12.264Z,85.16
2018-03-14T05:37:12.285Z,85.16
2018-03-14T05:38:12.280Z,84.49
2018-03-14T05:39:12.337Z,85.72
2018-03-14T05:40:12.308Z,85.35
2018-03-14T05:41:12.324Z,85.44
2018-03-14T05:42:12.365Z,85.35
2018-03-14T05:43:12.389Z,85.82
2018-03-14T05:44:12.375Z,85.63
2018-03-14T05:45:12.383Z,85.25
2018-03-14T05:46:12.427Z,85.06
2018-03-14T05:47:12.413Z,85.01
2018-03-14T05:48:12.433Z,84.63
2018-03-14T05:49:12.501Z,84.44
2018-03-14T05:50:12.471Z,84.97
2018-03-14T05:51:12.479Z,85.35
2018-03-14T05:52:12.490Z,85.72
2018-03-14T05:53:12.498Z,85.06
2018-03-14T05:54:12.529Z,85.16
2018-03-14T05:55:12.543Z,85.35
2018-03-14T05:56:12.544Z,85.30
2018-03-14T05:57:12.552Z,85.16
2018-03-14T05:58:12.586Z,85.35
2018-03-14T05:59:12.608Z,84.91
2018-03-14T06:00:12.606Z,84.72
2018-03-14T06:01:12.631Z,84.59
2018-03-14T06:02:12.673Z,85.49
2018-03-14T06:03:12.681Z,84.63
2018-03-14T06:04:12.696Z,84.87
2018-03-14T06:05:12.675Z,85.06
2018-03-14T06:06:12.702Z,84.87
2018-03-14T06:07:12.712Z,85.53
2018-03-14T06:08:12.752Z,85.25
2018-03-14T06:09:12.782Z,84.97
2018-03-14T06:10:12.783Z,85.35
2018-03-14T06:11:12.776Z,85.25
2018-03-14T06:12:12.801Z,85.63
2018-03-14T06:13:12.801Z,85.35
2018-03-14T06:14:12.818Z,85.44
2018-03-14T06:15:12.839Z,85.16
2018-03-14T06:16:12.836Z,85.01
2018-03-14T06:17:12.895Z,85.20
2018-03-14T06:18:12.896Z,84.91
2018-03-14T06:19:12.899Z,85.06
2018-03-14T06:20:12.902Z,85.53
2018-03-14T06:21:12.932Z,85.91
2018-03-14T06:22:12.929Z,85.82
2018-03-14T06:23:12.959Z,85.25
2018-03-14T06:24:12.980Z,85.63
2018-03-14T06:25:12.976Z,86.30
2018-03-14T06:26:12.988Z,86.49
2018-03-14T06:27:13.017Z,86.30
2018-03-14T06:28:13.026Z,85.82
2018-03-14T06:29:13.053Z,85.91
2018-03-14T06:30:13.048Z,85.16
2018-03-14T06:31:13.067Z,85.25
2018-03-14T06:32:13.085Z,85.49
2018-03-14T06:33:13.088Z,85.11
2018-03-14T06:34:13.157Z,85.30
2018-03-14T06:35:13.118Z,84.87
2018-03-14T06:36:13.136Z,85.44
2018-03-14T06:37:13.205Z,86.11
2018-03-14T06:38:13.165Z,85.72
2018-03-14T06:39:13.184Z,85.49
2018-03-14T06:40:13.230Z,85.86
2018-03-14T06:41:13.224Z,85.63
2018-03-14T06:42:13.291Z,85.68
2018-03-14T06:43:13.296Z,85.01
2018-03-14T06:44:13.269Z,85.16
2018-03-14T06:45:13.271Z,86.58
2018-03-14T06:46:13.286Z,87.24
2018-03-14T06:47:13.296Z,86.68
2018-03-14T06:48:13.312Z,86.49
2018-03-14T06:49:13.364Z,86.58
2018-03-14T06:50:13.346Z,87.05
2018-03-14T06:51:13.374Z,86.87
2018-03-14T06:52:13.375Z,86.30
2018-03-14T06:53:13.402Z,86.20
2018-03-14T06:54:13.406Z,86.20
2018-03-14T06:55:13.420Z,86.58
2018-03-14T06:56:13.479Z,86.11
2018-03-14T06:57:13.455Z,85.63
2018-03-14T06:58:13.481Z,85.72
2018-03-14T06:59:13.513Z,85.44
2018-03-14T07:00:13.509Z,85.25
2018-03-14T07:01:13.521Z,85.35
2018-03-14T07:02:13.531Z,85.16
2018-03-14T07:03:13.550Z,86.49
2018-03-14T07:04:13.588Z,86.49
2018-03-14T07:05:13.601Z,85.44
2018-03-14T07:06:13.577Z,85.35
2018-03-14T07:07:13.641Z,85.06
2018-03-14T07:08:13.622Z,84.21
2018-03-14T07:09:13.655Z,85.16
2018-03-14T07:10:13.643Z,84.87
2018-03-14T07:11:13.651Z,85.44
2018-03-14T07:12:13.680Z,85.16
2018-03-14T07:13:13.723Z,84.97
2018-03-14T07:14:13.711Z,85.44
2018-03-14T07:15:13.720Z,85.25
2018-03-14T07:16:13.737Z,85.25
2018-03-14T07:17:13.756Z,84.87
2018-03-14T07:18:13.763Z,85.25
2018-03-14T07:19:13.809Z,85.53
2018-03-14T07:20:13.798Z,85.16
2018-03-14T07:21:13.802Z,84.68
2018-03-14T07:22:13.852Z,84.40
2018-03-14T07:23:13.864Z,85.20
2018-03-14T07:24:13.861Z,85.44
2018-03-14T07:25:13.862Z,84.30
2018-03-14T07:26:13.875Z,84.34
2018-03-14T07:27:13.913Z,83.59
2018-03-14T07:28:14.013Z,83.39
2018-03-14T07:29:13.936Z,83.39
2018-03-14T07:30:13.947Z,83.97
2018-03-14T07:31:13.959Z,84.25
2018-03-14T07:32:13.964Z,84.63
2018-03-14T07:33:13.979Z,84.34
2018-03-14T07:34:14.006Z,83.68
2018-03-14T07:35:14.038Z,83.59
2018-03-14T07:36:14.063Z,83.87
2018-03-14T07:37:14.055Z,83.87
2018-03-14T07:38:14.079Z,82.45
2018-03-14T07:39:14.075Z,81.78
2018-03-14T07:40:14.170Z,82.07
2018-03-14T07:41:14.100Z,82.26
2018-03-14T07:42:14.136Z,82.73
2018-03-14T07:43:14.152Z,83.30
2018-03-14T07:44:14.165Z,82.73
2018-03-14T07:45:14.180Z,82.92
2018-03-14T07:46:14.244Z,82.16
2018-03-14T07:47:14.189Z,81.68
2018-03-14T07:48:14.210Z,81.21
2018-03-14T07:49:14.223Z,81.21
2018-03-14T07:50:14.236Z,81.87
2018-03-14T07:51:14.250Z,81.87
2018-03-14T07:52:14.299Z,83.30
2018-03-14T07:53:14.293Z,83.20
2018-03-14T07:54:14.315Z,83.39
2018-03-14T07:55:14.342Z,82.82
2018-03-14T07:56:14.332Z,83.30
2018-03-14T07:57:14.387Z,81.68
2018-03-14T07:58:14.395Z,81.87
2018-03-14T07:59:14.374Z,82.50
2018-03-14T08:00:14.406Z,82.73
2018-03-14T08:01:14.440Z,82.45
2018-03-14T08:02:14.439Z,82.82
2018-03-14T08:03:14.432Z,82.64
2018-03-14T08:04:14.456Z,82.73
2018-03-14T08:05:14.546Z,82.64
2018-03-14T08:06:14.488Z,82.26
2018-03-14T08:07:14.523Z,82.07
2018-03-14T08:08:14.510Z,80.87
2018-03-14T08:09:14.535Z,80.02
2018-03-14T08:10:14.565Z,80.45
2018-03-14T08:11:14.566Z,80.55
2018-03-14T08:12:14.578Z,80.45
2018-03-14T08:13:14.589Z,81.49
2018-03-14T08:14:14.625Z,81.59
2018-03-14T08:15:14.619Z,81.40
2018-03-14T08:16:14.632Z,80.74
2018-03-14T08:17:14.704Z,81.40
2018-03-14T08:18:14.667Z,81.06
2018-03-14T08:19:14.688Z,79.83
2018-03-14T08:20:14.719Z,79.41
2018-03-14T08:21:14.750Z,79.25
2018-03-14T08:22:14.726Z,79.54
2018-03-14T08:23:14.747Z,79.63
2018-03-14T08:24:14.764Z,79.54
2018-03-14T08:25:14.768Z,79.44
2018-03-14T08:26:14.786Z,78.97
2018-03-14T08:27:14.838Z,78.63
2018-03-14T08:28:14.818Z,78.34
2018-03-14T08:29:14.860Z,77.17
2018-03-14T08:30:14.846Z,77.64
2018-03-14T08:31:14.884Z,78.21
2018-03-14T08:32:14.877Z,78.72
2018-03-14T08:33:14.910Z,78.30
2018-03-14T08:34:14.919Z,78.69
2018-03-14T08:35:14.933Z,78.69
2018-03-14T08:36:14.943Z,78.59
2018-03-14T08:37:14.985Z,78.69
2018-03-14T08:38:14.979Z,79.30
2018-03-14T08:39:14.997Z,78.34
2018-03-14T08:40:15.020Z,78.72
2018-03-14T08:41:15.035Z,77.87
2018-03-14T08:42:15.048Z,76.63
2018-03-14T08:43:15.048Z,76.25
2018-03-14T08:44:15.066Z,77.11
2018-03-14T08:45:15.087Z,77.11
2018-03-14T08:46:15.138Z,76.35
2018-03-14T08:47:15.116Z,76.48
2018-03-14T08:48:15.134Z,76.96
2018-03-14T08:49:15.155Z,76.39
2018-03-14T08:50:15.167Z,75.72
2018-03-14T08:51:15.208Z,76.01
2018-03-14T08:52:15.194Z,75.62
2018-03-14T08:53:15.228Z,75.53
2018-03-14T08:54:15.293Z,75.72
2018-03-14T08:55:15.246Z,76.29
2018-03-14T08:56:15.263Z,75.91
2018-03-14T08:57:15.288Z,75.43
2018-03-14T08:58:15.303Z,76.10
2018-03-14T08:59:15.360Z,76.29
2018-03-14T09:00:15.333Z,76.10
2018-03-14T09:01:15.340Z,75.34
2018-03-14T09:02:15.381Z,74.67
2018-03-14T09:03:15.389Z,74.71
2018-03-14T09:04:15.387Z,73.72
2018-03-14T09:05:15.437Z,75.15
2018-03-14T09:06:15.454Z,74.04
2018-03-14T09:07:15.457Z,72.49
2018-03-14T09:08:15.572Z,73.25
2018-03-14T09:09:15.519Z,72.42
2018-03-14T09:10:15.503Z,72.05
2018-03-14T09:11:15.522Z,72.05
2018-03-14T09:12:15.522Z,72.58
2018-03-14T09:13:15.572Z,71.34
2018-03-14T09:14:15.568Z,72.86
2018-03-14T09:15:15.581Z,73.91
2018-03-14T09:16:15.595Z,73.91
2018-03-14T09:17:15.611Z,73.63
2018-03-14T09:18:15.631Z,73.91
2018-03-14T09:19:15.652Z,73.57
2018-03-14T09:20:15.675Z,72.24
2018-03-14T09:21:15.706Z,72.24
2018-03-14T09:22:15.703Z,71.76
2018-03-14T09:23:15.709Z,71.95
2018-03-14T09:24:15.717Z,72.05
2018-03-14T09:25:15.816Z,71.09
2018-03-14T09:26:15.767Z,70.52
2018-03-14T09:27:15.798Z,70.58
2018-03-14T09:28:15.807Z,70.62
2018-03-14T09:29:15.809Z,70.24
2018-03-14T09:30:15.857Z,69.19
2018-03-14T09:31:15.859Z,69.95
2018-03-14T09:32:15.908Z,69.85
2018-03-14T09:33:15.899Z,70.72
2018-03-14T09:34:15.892Z,70.33
2018-03-14T09:35:15.936Z,70.14
2018-03-14T09:36:15.914Z,69.00
2018-03-14T09:37:15.951Z,69.95
2018-03-14T09:38:15.963Z,69.95
2018-03-14T09:39:15.990Z,70.14
2018-03-14T09:40:15.994Z,69.06
2018-03-14T09:41:16.003Z,70.01
2018-03-14T09:42:16.021Z,71.00
2018-03-14T09:43:16.048Z,69.92
2018-03-14T09:44:16.067Z,70.14
2018-03-14T09:45:16.111Z,69.76
2018-03-14T09:46:16.088Z,70.52
2018-03-14T09:47:16.138Z,71.09
2018-03-14T09:48:16.212Z,71.09
2018-03-14T09:49:16.145Z,68.62
2018-03-14T09:50:16.204Z,68.52
2018-03-14T09:51:16.193Z,69.10
2018-03-14T09:52:16.199Z,67.99
2018-03-14T09:53:16.235Z,67.03
2018-03-14T09:54:16.226Z,67.00
2018-03-14T09:55:16.237Z,67.38
2018-03-14T09:56:16.262Z,68.49
2018-03-14T09:57:16.292Z,69.29
2018-03-14T09:58:16.299Z,69.29
2018-03-14T09:59:16.354Z,70.18
2018-03-14T10:00:16.323Z,69.00
2018-03-14T10:01:16.349Z,69.04
2018-03-14T10:02:16.380Z,68.81
2018-03-14T10:03:16.377Z,68.75
2018-03-14T10:04:16.413Z,67.51
2018-03-14T10:05:16.412Z,67.32
2018-03-14T10:06:16.422Z,67.22
2018-03-14T10:07:16.498Z,67.70
2018-03-14T10:08:16.481Z,67.61
2018-03-14T10:09:16.517Z,66.75
2018-03-14T10:10:16.493Z,66.08
2018-03-14T10:11:16.520Z,66.66
2018-03-14T10:12:16.528Z,66.75
2018-03-14T10:13:16.543Z,67.61
2018-03-14T10:14:16.560Z,67.51
2018-03-14T10:15:16.604Z,67.61
2018-03-14T10:16:16.602Z,67.80
2018-03-14T10:17:16.621Z,67.32
2018-03-14T10:18:16.636Z,67.61
2018-03-14T10:19:16.696Z,67.61
2018-03-14T10:20:16.673Z,65.83
2018-03-14T10:21:16.678Z,65.13
2018-03-14T10:22:16.696Z,66.40
2018-03-14T10:23:16.749Z,66.50
2018-03-14T10:24:16.737Z,66.69
2018-03-14T10:25:16.752Z,66.97
2018-03-14T10:26:16.759Z,65.07
2018-03-14T10:27:16.790Z,63.83
2018-03-14T10:28:16.821Z,63.45
2018-03-14T10:29:16.820Z,63.35
2018-03-14T10:30:16.838Z,64.21
2018-03-14T10:31:16.854Z,65.89
2018-03-14T10:32:16.889Z,66.50
2018-03-14T10:33:16.919Z,66.69
2018-03-14T10:34:16.916Z,66.69
2018-03-14T10:35:16.980Z,65.80
2018-03-14T10:36:16.954Z,65.92
2018-03-14T10:37:16.995Z,66.02
2018-03-14T10:38:16.996Z,65.92
2018-03-14T10:39:17.024Z,64.40
2018-03-14T10:40:17.013Z,65.13
2018-03-14T10:41:17.045Z,65.07
2018-03-14T10:42:17.050Z,64.87
2018-03-14T10:43:17.055Z,63.45
2018-03-14T10:44:17.084Z,62.15
2018-03-14T10:45:17.103Z,62.05
2018-03-14T10:46:17.118Z,63.83
2018-03-14T10:47:17.151Z,64.65
2018-03-14T10:48:17.156Z,66.18
2018-03-14T10:49:17.192Z,65.26
2018-03-14T10:50:17.185Z,63.70
2018-03-14T10:51:17.208Z,64.37
2018-03-14T10:52:17.221Z,64.65
2018-03-14T10:53:17.240Z,63.83
2018-03-14T10:54:17.265Z,64.37
2018-03-14T10:55:17.286Z,65.13
2018-03-14T10:56:17.345Z,64.84
2018-03-14T10:57:17.314Z,65.89
2018-03-14T10:58:17.322Z,64.69
2018-03-14T10:59:17.337Z,63.83
2018-03-14T11:00:17.357Z,63.17
2018-03-14T11:01:17.420Z,61.70
2018-03-14T11:02:17.395Z,62.37
2018-03-14T11:03:17.405Z,61.58
2018-03-14T11:04:17.434Z,63.86
2018-03-14T11:05:17.444Z,64.75
2018-03-14T11:06:17.462Z,62.97
2018-03-14T11:07:17.530Z,62.40
2018-03-14T11:08:17.490Z,62.12
2018-03-14T11:09:17.511Z,62.56
2018-03-14T11:10:17.549Z,63.23
2018-03-14T11:11:17.553Z,63.42
2018-03-14T11:12:17.582Z,63.42
2018-03-14T11:13:17.593Z,63.45
2018-03-14T11:14:17.599Z,62.78
2018-03-14T11:15:17.665Z,62.27
2018-03-14T11:16:17.634Z,63.04
2018-03-14T11:17:17.652Z,63.23
2018-03-14T11:18:17.672Z,61.83
2018-03-14T11:19:17.696Z,60.88
2018-03-14T11:20:17.756Z,60.21
2018-03-14T11:21:17.728Z,60.75
2018-03-14T11:22:17.733Z,61.90
2018-03-14T11:23:17.777Z,62.75
2018-03-14T11:24:17.789Z,62.85
2018-03-14T11:25:17.796Z,62.75
2018-03-14T11:26:17.801Z,62.56
2018-03-14T11:27:17.834Z,62.08
2018-03-14T11:28:17.839Z,62.56
2018-03-14T11:29:17.865Z,62.75
2018-03-14T11:30:17.909Z,62.94
2018-03-14T11:31:17.898Z,62.46
2018-03-14T11:32:17.943Z,62.21
2018-03-14T11:33:17.915Z,62.18
2018-03-14T11:34:17.959Z,62.53
2018-03-14T11:35:17.989Z,62.24
2018-03-14T11:36:18.007Z,63.23
2018-03-14T11:37:17.984Z,62.75
2018-03-14T11:38:18.056Z,62.75
2018-03-14T11:39:18.029Z,62.12
2018-03-14T11:40:18.052Z,62.12
2018-03-14T11:41:18.081Z,61.42
2018-03-14T11:42:18.092Z,61.90
2018-03-14T11:43:18.120Z,62.18
2018-03-14T11:44:18.141Z,61.90
2018-03-14T11:45:18.136Z,61.70
2018-03-14T11:46:18.159Z,62.08
2018-03-14T11:47:18.156Z,62.08
2018-03-14T11:48:18.180Z,61.80
2018-03-14T11:49:18.199Z,61.70
2018-03-14T11:50:18.217Z,61.80
2018-03-14T11:51:18.241Z,62.18
2018-03-14T11:52:18.256Z,62.08
2018-03-14T11:53:18.288Z,62.08
2018-03-14T11:54:18.274Z,62.85
2018-03-14T11:55:18.295Z,60.94
2018-03-14T11:56:18.312Z,60.75
2018-03-14T11:57:18.338Z,61.70
2018-03-14T11:58:18.342Z,62.08
2018-03-14T11:59:18.362Z,63.20
2018-03-14T12:00:18.385Z,63.39
2018-03-14T12:01:18.396Z,63.29
2018-03-14T12:02:18.422Z,63.39
2018-03-14T12:03:18.444Z,63.86
2018-03-14T12:04:18.464Z,64.81
2018-03-14T12:05:18.469Z,64.90
2018-03-14T12:06:18.656Z,64.43
2018-03-14T12:07:18.496Z,63.51
2018-03-14T12:08:18.505Z,63.39
2018-03-14T12:09:18.552Z,63.57
2018-03-14T12:10:18.599Z,63.39
2018-03-14T12:11:18.562Z,63.48
2018-03-14T12:12:18.584Z,63.57
2018-03-14T12:13:18.606Z,64.15
2018-03-14T12:14:18.632Z,64.05
2018-03-14T12:15:18.633Z,63.48
2018-03-14T12:16:18.706Z,64.34
2018-03-14T12:17:18.664Z,62.94
2018-03-14T12:18:18.685Z,62.81
2018-03-14T12:19:18.705Z,62.37
2018-03-14T12:20:18.711Z,63.70
2018-03-14T12:21:18.776Z,63.39
2018-03-14T12:22:18.782Z,63.10
2018-03-14T12:23:18.757Z,63.57
2018-03-14T12:24:18.784Z,63.57
2018-03-14T12:25:18.827Z,62.94
2018-03-14T12:26:18.841Z,62.08
2018-03-14T12:27:18.876Z,62.08
2018-03-14T12:28:18.879Z,61.90
2018-03-14T12:29:18.899Z,62.43
2018-03-14T12:30:18.881Z,62.53
2018-03-14T12:31:18.932Z,62.94
2018-03-14T12:32:18.918Z,63.13
2018-03-14T12:33:18.973Z,62.75
2018-03-14T12:34:18.958Z,62.94
2018-03-14T12:35:19.002Z,62.08
2018-03-14T12:36:18.980Z,63.51
2018-03-14T12:37:18.989Z,62.72
2018-03-14T12:38:19.025Z,63.39
2018-03-14T12:39:19.029Z,62.94
2018-03-14T12:40:19.051Z,62.18
2018-03-14T12:41:19.064Z,63.42
2018-03-14T12:42:19.112Z,62.75
2018-03-14T12:43:19.121Z,61.70
2018-03-14T12:44:19.115Z,62.34
2018-03-14T12:45:19.133Z,62.65
2018-03-14T12:46:19.174Z,63.42
2018-03-14T12:47:19.178Z,62.56
2018-03-14T12:48:19.187Z,63.04
2018-03-14T12:49:19.190Z,63.10
2018-03-14T12:50:19.344Z,63.42
2018-03-14T12:51:19.234Z,62.85
2018-03-14T12:52:19.254Z,62.18